createdAt,value
2022-10-03T00:02:17.565Z,2.57
2022-10-03T00:05:02.801Z,2.20
2022-10-03T00:07:50.797Z,1.90
2022-10-03T00:10:29.174Z,1.60
2022-10-03T00:13:07.850Z,2.10
2022-10-03T00:15:39.565Z,2.33
2022-10-03T00:18:19.574Z,2.73
2022-10-03T00:21:04.365Z,1.80
2022-10-03T00:23:44.020Z,3.03
2022-10-03T00:26:30.534Z,2.33
2022-10-03T00:29:07.491Z,2.17
2022-10-03T00:32:06.989Z,2.80
2022-10-03T00:34:39.478Z,2.83
2022-10-03T00:37:16.166Z,2.43
2022-10-03T00:39:42.639Z,2.20
2022-10-03T00:42:35.681Z,2.30
2022-10-03T00:45:26.739Z,2.03
2022-10-03T00:48:21.593Z,2.37
2022-10-03T00:51:29.657Z,2.17
2022-10-03T00:54:03.300Z,1.93
2022-10-03T00:56:48.479Z,1.80
2022-10-03T00:59:37.531Z,2.33
2022-10-03T01:02:39.498Z,2.50
2022-10-03T01:05:15.485Z,2.67
2022-10-03T01:07:55.168Z,3.10
2022-10-03T01:10:29.715Z,2.30
2022-10-03T01:13:09.041Z,2.20
2022-10-03T01:16:11.771Z,3.03
2022-10-03T01:18:58.720Z,2.60
2022-10-03T01:21:50.783Z,3.30
2022-10-03T01:24:48.575Z,2.50
2022-10-03T01:27:18.966Z,2.63
2022-10-03T01:30:10.027Z,2.77
2022-10-03T01:32:44.668Z,2.87
2022-10-03T01:35:22.478Z,3.00
2022-10-03T01:37:58.344Z,2.37
2022-10-03T01:40:33.774Z,2.90
2022-10-03T01:43:11.923Z,2.60
2022-10-03T01:45:57.046Z,2.67
2022-10-03T01:48:29.820Z,2.33
2022-10-03T01:51:16.662Z,2.80
2022-10-03T01:54:18.632Z,2.80
2022-10-03T01:57:03.050Z,2.67
2022-10-03T02:00:09.602Z,3.07
2022-10-03T02:02:45.508Z,3.90
2022-10-03T02:05:20.015Z,3.07
2022-10-03T02:07:52.652Z,3.10
2022-10-03T02:10:33.904Z,2.80
2022-10-03T02:13:22.192Z,2.93
2022-10-03T02:16:08.320Z,3.10
2022-10-03T02:18:48.827Z,2.97
2022-10-03T02:21:20.642Z,2.30
2022-10-03T02:23:49.212Z,2.23
2022-10-03T02:27:12.683Z,2.90
2022-10-03T02:30:04.123Z,3.40
2022-10-03T02:32:55.115Z,3.20
2022-10-03T02:35:35.803Z,3.80
2022-10-03T02:38:26.736Z,3.47
2022-10-03T02:41:22.496Z,3.80
2022-10-03T02:44:21.886Z,4.17
2022-10-03T02:47:09.303Z,3.93
2022-10-03T02:49:45.483Z,4.10
2022-10-03T02:52:37.944Z,4.73
2022-10-03T02:55:41.312Z,5.33
2022-10-03T02:58:35.733Z,5.97
2022-10-03T03:01:51.472Z,5.50
2022-10-03T03:04:45.083Z,5.40
2022-10-03T03:07:38.276Z,5.43
2022-10-03T03:10:44.478Z,5.23
2022-10-03T03:13:31.215Z,5.40
2022-10-03T03:16:28.751Z,4.77
2022-10-03T03:18:55.141Z,5.60
2022-10-03T03:21:29.995Z,5.90
2022-10-03T03:24:18.025Z,6.10
2022-10-03T03:26:44.632Z,5.53
2022-10-03T03:29:17.030Z,7.50
2022-10-03T03:31:54.963Z,6.20
2022-10-03T03:35:06.149Z,5.43
2022-10-03T03:38:08.202Z,6.50
2022-10-03T03:40:40.372Z,7.00
2022-10-03T03:43:20.381Z,6.10
2022-10-03T03:46:34.728Z,5.10
2022-10-03T03:49:51.764Z,5.37
2022-10-03T03:52:42.527Z,5.00
2022-10-03T03:55:21.298Z,6.13
2022-10-03T03:58:06.200Z,6.10
2022-10-03T04:00:48.118Z,5.57
2022-10-03T04:03:34.531Z,4.60
2022-10-03T04:06:26.881Z,5.80
2022-10-03T04:09:24.360Z,4.27
2022-10-03T04:12:29.779Z,4.93
2022-10-03T04:15:21.299Z,5.60
2022-10-03T04:18:33.691Z,5.27
2022-10-03T04:21:09.211Z,5.90
2022-10-03T04:23:35.575Z,5.57
2022-10-03T04:26:20.480Z,5.53
2022-10-03T04:29:29.267Z,5.40
2022-10-03T04:32:11.127Z,6.10
2022-10-03T04:34:56.700Z,5.20
2022-10-03T04:37:43.057Z,6.27
2022-10-03T04:40:11.866Z,5.10
2022-10-03T04:42:46.351Z,6.30
2022-10-03T04:45:29.095Z,6.40
2022-10-03T04:48:56.965Z,6.40
2022-10-03T04:51:38.484Z,5.63
2022-10-03T04:54:22.582Z,5.37
2022-10-03T04:56:54.561Z,6.07
2022-10-03T04:59:31.901Z,5.53
2022-10-03T05:02:08.193Z,5.60
2022-10-03T05:05:02.321Z,6.30
2022-10-03T05:07:56.340Z,6.00
2022-10-03T05:11:11.062Z,5.93
2022-10-03T05:13:57.931Z,6.00
2022-10-03T05:16:37.749Z,5.30
2022-10-03T05:19:19.996Z,6.47
2022-10-03T05:22:00.879Z,5.63
2022-10-03T05:24:55.969Z,5.63
2022-10-03T05:27:28.397Z,5.47
2022-10-03T05:30:08.079Z,5.83
2022-10-03T05:32:41.700Z,7.13
2022-10-03T05:35:25.282Z,6.27
2022-10-03T05:38:10.130Z,5.80
2022-10-03T05:40:40.551Z,6.27
2022-10-03T05:43:48.947Z,5.80
2022-10-03T05:46:28.283Z,5.80
2022-10-03T05:49:23.918Z,6.00
2022-10-03T05:52:22.550Z,5.40
2022-10-03T05:54:55.344Z,6.70
2022-10-03T05:57:44.104Z,4.73
2022-10-03T06:00:15.110Z,6.03
2022-10-03T06:03:07.968Z,7.10
2022-10-03T06:05:56.793Z,7.27
2022-10-03T06:09:00.352Z,7.73
2022-10-03T06:12:07.392Z,7.67
2022-10-03T06:14:43.505Z,9.23
2022-10-03T06:17:28.248Z,9.47
2022-10-03T06:20:29.753Z,8.70
2022-10-03T06:23:32.437Z,7.73
2022-10-03T06:26:39.030Z,8.87
2022-10-03T06:29:23.913Z,9.20
2022-10-03T06:32:10.096Z,8.60
2022-10-03T06:35:09.498Z,8.50
2022-10-03T06:37:44.955Z,7.53
2022-10-03T06:40:48.923Z,8.83
2022-10-03T06:43:30.164Z,8.67
2022-10-03T06:46:29.063Z,8.03
2022-10-03T06:49:14.594Z,7.73
2022-10-03T06:52:01.222Z,6.90
2022-10-03T06:54:43.171Z,8.13
2022-10-03T06:57:44.143Z,7.60
2022-10-03T07:00:26.061Z,7.60
2022-10-03T07:03:17.137Z,7.67
2022-10-03T07:05:56.250Z,8.80
2022-10-03T07:08:31.811Z,8.77
2022-10-03T07:11:23.288Z,8.50
2022-10-03T07:14:16.187Z,8.90
2022-10-03T07:16:58.030Z,8.30
2022-10-03T07:19:25.612Z,7.73
2022-10-03T07:22:27.176Z,7.50
2022-10-03T07:25:18.601Z,8.57
2022-10-03T07:28:23.749Z,7.37
2022-10-03T07:31:05.604Z,7.10
2022-10-03T07:34:00.527Z,7.37
2022-10-03T07:37:04.391Z,7.10
2022-10-03T07:39:55.326Z,8.27
2022-10-03T07:42:48.305Z,7.60
2022-10-03T07:46:12.063Z,6.67
2022-10-03T07:49:17.649Z,6.83
2022-10-03T07:52:15.666Z,6.80
2022-10-03T07:55:00.438Z,7.40
2022-10-03T07:57:32.706Z,6.63
2022-10-03T08:00:09.293Z,6.80
2022-10-03T08:02:55.555Z,7.53
2022-10-03T08:05:33.024Z,6.67
2022-10-03T08:08:10.686Z,6.50
2022-10-03T08:11:01.716Z,7.40
2022-10-03T08:13:50.901Z,6.07
2022-10-03T08:16:49.882Z,6.43
2022-10-03T08:19:25.448Z,6.80
2022-10-03T08:22:11.906Z,5.70
2022-10-03T08:25:17.017Z,4.90
2022-10-03T08:28:09.983Z,5.83
2022-10-03T08:31:04.455Z,5.60
2022-10-03T08:33:51.973Z,5.83
2022-10-03T08:36:24.672Z,5.97
2022-10-03T08:39:19.409Z,4.50
2022-10-03T08:42:04.600Z,6.57
2022-10-03T08:45:15.963Z,5.10
2022-10-03T08:48:09.633Z,5.07
2022-10-03T08:50:45.350Z,4.53
2022-10-03T08:53:28.308Z,5.30
2022-10-03T08:56:07.887Z,5.80
2022-10-03T08:59:16.456Z,5.30
2022-10-03T09:02:18.438Z,4.77
2022-10-03T09:05:22.047Z,6.50
2022-10-03T09:08:18.829Z,10.30
2022-10-03T09:11:09.307Z,6.00
2022-10-03T09:14:13.241Z,4.83
2022-10-03T09:16:51.696Z,5.90
2022-10-03T09:19:27.443Z,5.17
2022-10-03T09:22:32.128Z,4.60
2022-10-03T09:25:11.016Z,4.83
2022-10-03T09:28:08.964Z,5.40
2022-10-03T09:30:57.539Z,4.30
2022-10-03T09:33:45.887Z,5.47
2022-10-03T09:36:12.220Z,5.60
2022-10-03T09:39:01.397Z,5.33
2022-10-03T09:42:00.480Z,4.67
2022-10-03T09:44:39.254Z,4.23
2022-10-03T09:47:30.015Z,4.17
2022-10-03T09:50:19.538Z,4.00
2022-10-03T09:53:07.065Z,4.90
2022-10-03T09:56:02.908Z,3.27
2022-10-03T09:58:41.878Z,4.03
2022-10-03T10:01:22.258Z,3.57
2022-10-03T10:04:13.746Z,4.70
2022-10-03T10:07:08.166Z,4.63
2022-10-03T10:09:46.501Z,4.23
2022-10-03T10:12:41.975Z,4.87
2022-10-03T10:15:17.600Z,4.37
2022-10-03T10:18:08.211Z,4.37
2022-10-03T10:21:03.767Z,4.70
2022-10-03T10:23:37.988Z,4.40
2022-10-03T10:26:54.200Z,4.40
2022-10-03T10:29:51.239Z,8.13
2022-10-03T10:32:34.843Z,12.53
2022-10-03T10:35:29.006Z,8.20
2022-10-03T10:38:26.247Z,7.13
2022-10-03T10:41:21.512Z,5.07
2022-10-03T10:44:13.192Z,4.63
2022-10-03T10:47:23.449Z,4.23
2022-10-03T10:50:09.038Z,6.13
2022-10-03T10:53:29.154Z,5.90
2022-10-03T10:56:18.760Z,5.80
2022-10-03T10:59:16.357Z,4.17
2022-10-03T11:02:13.697Z,4.63
2022-10-03T11:05:03.093Z,4.87
2022-10-03T11:08:07.214Z,4.57
2022-10-03T11:10:41.573Z,4.33
2022-10-03T11:13:36.309Z,3.93
2022-10-03T11:16:40.904Z,5.30
2022-10-03T11:19:26.981Z,4.87
2022-10-03T11:22:25.523Z,5.70
2022-10-03T11:25:26.504Z,4.50
2022-10-03T11:28:30.745Z,5.03
2022-10-03T11:31:03.044Z,4.53
2022-10-03T11:34:04.978Z,4.00
2022-10-03T11:36:50.194Z,4.60
2022-10-03T11:39:22.488Z,8.63
2022-10-03T11:42:02.593Z,6.17
2022-10-03T11:44:41.185Z,14.03
2022-10-03T11:47:21.191Z,3.47
2022-10-03T11:50:13.401Z,5.47
2022-10-03T11:53:10.427Z,10.80
2022-10-03T11:55:44.137Z,6.70
2022-10-03T11:58:25.839Z,3.60
2022-10-03T12:01:12.948Z,5.50
2022-10-03T12:04:05.336Z,5.93
2022-10-03T12:07:04.319Z,3.50
2022-10-03T12:09:54.967Z,5.13
2022-10-03T12:12:43.960Z,5.33
2022-10-03T12:15:24.659Z,19.03
2022-10-03T12:18:00.286Z,4.27
2022-10-03T12:21:08.074Z,7.57
2022-10-03T12:23:41.540Z,5.10
2022-10-03T12:26:14.684Z,8.53
2022-10-03T12:28:46.144Z,28.60
2022-10-03T12:31:24.975Z,8.60
2022-10-03T12:34:25.554Z,14.77
2022-10-03T12:36:56.690Z,9.50
2022-10-03T12:39:46.460Z,7.33
2022-10-03T12:42:15.652Z,9.17
2022-10-03T12:44:56.852Z,4.50
2022-10-03T12:47:56.044Z,10.47
2022-10-03T12:50:39.968Z,7.53
2022-10-03T12:53:15.576Z,5.43
2022-10-03T12:56:03.086Z,7.70
2022-10-03T12:59:07.861Z,5.13
2022-10-03T13:01:46.191Z,4.50
2022-10-03T13:04:37.350Z,4.80
2022-10-03T13:07:21.748Z,5.30
2022-10-03T13:10:01.715Z,4.37
2022-10-03T13:12:58.502Z,17.00
2022-10-03T13:15:46.930Z,9.90
2022-10-03T13:18:15.938Z,5.60
2022-10-03T13:20:55.853Z,4.53
2022-10-03T13:23:32.252Z,15.47
2022-10-03T13:26:17.940Z,7.63
2022-10-03T13:29:17.312Z,4.40
2022-10-03T13:31:50.140Z,5.70
2022-10-03T13:34:22.145Z,5.30
2022-10-03T13:37:00.677Z,9.40
2022-10-03T13:39:49.636Z,8.37
2022-10-03T13:42:32.177Z,4.30
2022-10-03T13:45:05.232Z,9.93
2022-10-03T13:47:45.086Z,5.83
2022-10-03T13:50:22.614Z,3.30
2022-10-03T13:52:53.888Z,3.70
2022-10-03T13:55:38.507Z,4.63
2022-10-03T13:58:27.376Z,3.97
2022-10-03T14:00:53.775Z,4.83
2022-10-03T14:03:49.099Z,5.87
2022-10-03T14:06:24.271Z,3.70
2022-10-03T14:09:09.304Z,5.30
2022-10-03T14:11:45.109Z,4.77
2022-10-03T14:14:21.467Z,3.73
2022-10-03T14:16:56.076Z,4.97
2022-10-03T14:19:35.227Z,4.90
2022-10-03T14:22:11.323Z,4.90
2022-10-03T14:24:42.844Z,4.10
2022-10-03T14:27:44.610Z,4.53
2022-10-03T14:30:21.541Z,4.60
2022-10-03T14:33:13.437Z,4.67
2022-10-03T14:35:46.569Z,4.13
2022-10-03T14:38:58.826Z,5.00
2022-10-03T14:41:52.523Z,5.10
2022-10-03T14:44:40.994Z,3.90
2022-10-03T14:47:10.446Z,4.30
2022-10-03T14:49:55.020Z,4.73
2022-10-03T14:52:44.929Z,5.43
2022-10-03T14:55:19.155Z,4.93
2022-10-03T14:58:09.963Z,5.30
2022-10-03T15:00:43.965Z,4.57
2022-10-03T15:03:17.011Z,5.13
2022-10-03T15:05:59.309Z,4.43
2022-10-03T15:08:32.368Z,3.80
2022-10-03T15:10:59.563Z,4.10
2022-10-03T15:13:27.637Z,5.10
2022-10-03T15:15:55.831Z,5.43
2022-10-03T15:18:24.345Z,6.30
2022-10-03T15:20:53.060Z,4.93
2022-10-03T15:23:41.363Z,4.77
2022-10-03T15:26:21.354Z,4.20
2022-10-03T15:28:49.997Z,4.57
2022-10-03T15:31:36.099Z,5.43
2022-10-03T15:34:06.808Z,4.67
2022-10-03T15:36:41.457Z,4.57
2022-10-03T15:39:18.811Z,4.60
2022-10-03T15:42:02.039Z,4.33
2022-10-03T15:44:33.804Z,4.50
2022-10-03T15:47:05.980Z,5.10
2022-10-03T15:49:37.603Z,5.07
2022-10-03T15:52:15.966Z,5.43
2022-10-03T15:54:46.590Z,5.00
2022-10-03T15:57:19.924Z,4.97
2022-10-03T15:59:51.216Z,4.53
2022-10-03T16:02:30.503Z,4.80
2022-10-03T16:04:58.106Z,4.20
2022-10-03T16:07:44.724Z,6.97
2022-10-03T16:10:18.800Z,3.97
2022-10-03T16:12:56.606Z,4.63
2022-10-03T16:15:37.687Z,6.87
2022-10-03T16:18:31.881Z,5.50
2022-10-03T16:21:02.043Z,5.47
2022-10-03T16:23:34.488Z,6.40
2022-10-03T16:26:13.433Z,5.67
2022-10-03T16:29:13.524Z,5.93
2022-10-03T16:31:46.875Z,5.20
2022-10-03T16:34:16.894Z,8.27
2022-10-03T16:36:50.443Z,7.40
2022-10-03T16:39:27.367Z,8.20
2022-10-03T16:41:55.736Z,7.27
2022-10-03T16:44:39.818Z,9.00
2022-10-03T16:47:08.004Z,10.10
2022-10-03T16:50:01.880Z,10.20
2022-10-03T16:52:34.666Z,9.97
2022-10-03T16:55:07.132Z,5.70
2022-10-03T16:58:01.312Z,6.07
2022-10-03T17:00:34.567Z,6.47
2022-10-03T17:03:03.582Z,8.10
2022-10-03T17:05:32.788Z,10.90
2022-10-03T17:08:23.641Z,10.33
2022-10-03T17:10:58.392Z,7.60
2022-10-03T17:13:36.164Z,9.00
2022-10-03T17:16:34.764Z,8.60
2022-10-03T17:19:13.372Z,10.17
2022-10-03T17:21:43.219Z,7.80
2022-10-03T17:24:16.401Z,8.30
2022-10-03T17:26:45.057Z,8.60
2022-10-03T17:29:33.361Z,9.33
2022-10-03T17:32:12.582Z,10.87
2022-10-03T17:34:42.805Z,13.13
2022-10-03T17:37:11.932Z,12.90
2022-10-03T17:39:58.864Z,12.77
2022-10-03T17:42:43.598Z,16.83
2022-10-03T17:45:30.672Z,9.93
2022-10-03T17:48:01.362Z,18.67
2022-10-03T17:50:31.117Z,12.63
2022-10-03T17:52:57.877Z,10.60
2022-10-03T17:55:29.792Z,8.60
2022-10-03T17:58:00.250Z,9.20
2022-10-03T18:00:31.493Z,9.30
2022-10-03T18:03:04.233Z,9.17
2022-10-03T18:05:39.087Z,9.90
2022-10-03T18:08:08.652Z,9.73
2022-10-03T18:10:37.872Z,9.80
2022-10-03T18:13:14.578Z,9.53
2022-10-03T18:16:12.671Z,9.50
2022-10-03T18:18:52.903Z,8.37
2022-10-03T18:21:43.338Z,10.23
2022-10-03T18:24:33.554Z,11.40
2022-10-03T18:27:15.162Z,12.40
2022-10-03T18:29:55.993Z,10.27
2022-10-03T18:32:25.420Z,11.00
2022-10-03T18:35:12.920Z,12.17
2022-10-03T18:37:39.356Z,13.60
2022-10-03T18:40:13.731Z,14.23
2022-10-03T18:42:40.776Z,11.80
2022-10-03T18:45:16.385Z,10.97
2022-10-03T18:47:51.215Z,10.00
2022-10-03T18:50:30.940Z,9.60
2022-10-03T18:53:08.983Z,11.67
2022-10-03T18:55:41.999Z,11.17
2022-10-03T18:58:33.367Z,11.13
2022-10-03T19:01:20.169Z,11.30
2022-10-03T19:03:52.332Z,11.60
2022-10-03T19:06:22.406Z,10.53
2022-10-03T19:09:19.631Z,11.63
2022-10-03T19:11:52.117Z,11.00
2022-10-03T19:14:26.744Z,11.33
2022-10-03T19:16:59.059Z,11.30
2022-10-03T19:19:41.301Z,12.60
2022-10-03T19:22:12.184Z,12.27
2022-10-03T19:24:57.755Z,12.30
2022-10-03T19:27:43.588Z,10.40
2022-10-03T19:30:12.045Z,10.83
2022-10-03T19:32:49.601Z,10.23
2022-10-03T19:35:20.313Z,12.00
2022-10-03T19:37:52.394Z,12.33
2022-10-03T19:40:24.917Z,9.30
2022-10-03T19:43:17.616Z,8.93
2022-10-03T19:45:56.063Z,7.60
2022-10-03T19:48:28.384Z,7.40
2022-10-03T19:50:55.064Z,8.00
2022-10-03T19:53:21.587Z,8.23
2022-10-03T19:55:48.545Z,8.70
2022-10-03T19:58:24.031Z,6.67
2022-10-03T20:00:53.111Z,7.37
2022-10-03T20:03:28.707Z,8.33
2022-10-03T20:06:02.352Z,6.97
2022-10-03T20:08:54.069Z,6.40
2022-10-03T20:11:46.056Z,7.30
2022-10-03T20:14:19.760Z,8.30
2022-10-03T20:16:48.392Z,8.37
2022-10-03T20:19:17.401Z,8.97
2022-10-03T20:21:52.140Z,8.90
2022-10-03T20:24:23.161Z,8.60
2022-10-03T20:27:15.858Z,7.47
2022-10-03T20:29:48.439Z,7.33
2022-10-03T20:32:16.621Z,6.30
2022-10-03T20:34:51.650Z,7.10
2022-10-03T20:37:37.019Z,7.70
2022-10-03T20:40:27.906Z,8.30
2022-10-03T20:43:20.060Z,7.03
2022-10-03T20:45:57.990Z,7.17
2022-10-03T20:48:27.213Z,6.80
2022-10-03T20:50:57.348Z,6.50
2022-10-03T20:53:25.884Z,6.40
2022-10-03T20:56:02.780Z,6.23
2022-10-03T20:58:38.172Z,7.20
2022-10-03T21:01:15.263Z,5.50
2022-10-03T21:03:57.977Z,5.57
2022-10-03T21:06:32.237Z,6.30
2022-10-03T21:09:01.299Z,7.50
2022-10-03T21:11:29.308Z,6.70
2022-10-03T21:14:07.236Z,9.93
2022-10-03T21:16:34.978Z,11.77
2022-10-03T21:19:03.809Z,14.20
2022-10-03T21:21:42.904Z,13.87
2022-10-03T21:24:21.187Z,12.10
2022-10-03T21:26:52.491Z,11.30
2022-10-03T21:29:25.047Z,8.40
2022-10-03T21:32:16.554Z,6.97
2022-10-03T21:34:58.299Z,7.00
2022-10-03T21:37:45.767Z,6.43
2022-10-03T21:40:30.494Z,6.63
2022-10-03T21:43:12.312Z,5.93
2022-10-03T21:46:17.323Z,5.07
2022-10-03T21:48:58.866Z,6.80
2022-10-03T21:51:58.512Z,5.70
2022-10-03T21:54:36.432Z,5.90
2022-10-03T21:57:38.296Z,5.97
2022-10-03T22:00:16.160Z,5.50
2022-10-03T22:02:54.615Z,4.93
2022-10-03T22:05:27.063Z,4.90
2022-10-03T22:07:53.807Z,5.40
2022-10-03T22:10:22.358Z,6.63
2022-10-03T22:12:51.678Z,7.23
2022-10-03T22:15:27.602Z,6.90
2022-10-03T22:18:04.187Z,8.87
2022-10-03T22:20:32.512Z,9.07
2022-10-03T22:23:16.347Z,8.67
2022-10-03T22:26:14.184Z,6.90
2022-10-03T22:28:49.584Z,6.40
2022-10-03T22:31:30.202Z,7.40
2022-10-03T22:34:19.392Z,6.80
2022-10-03T22:36:46.413Z,6.17
2022-10-03T22:39:15.439Z,5.83
2022-10-03T22:41:44.205Z,6.63
2022-10-03T22:44:11.740Z,6.00
2022-10-03T22:46:40.451Z,5.97
2022-10-03T22:49:16.301Z,5.50
2022-10-03T22:51:44.136Z,5.17
2022-10-03T22:54:17.439Z,4.73
2022-10-03T22:56:45.317Z,5.10
2022-10-03T22:59:16.895Z,5.80
2022-10-03T23:01:46.357Z,6.10
2022-10-03T23:04:18.342Z,5.47
2022-10-03T23:07:07.113Z,4.60
2022-10-03T23:09:51.720Z,5.20
2022-10-03T23:12:20.915Z,5.20
2022-10-03T23:14:50.211Z,6.00
2022-10-03T23:17:35.356Z,4.87
2022-10-03T23:20:15.802Z,4.90
2022-10-03T23:22:46.862Z,4.90
2022-10-03T23:25:29.803Z,4.27
2022-10-03T23:28:14.497Z,4.70
2022-10-03T23:30:49.587Z,5.10
2022-10-03T23:33:32.542Z,5.23
2022-10-03T23:36:23.539Z,4.63
2022-10-03T23:38:49.903Z,6.23
2022-10-03T23:41:32.280Z,4.27
2022-10-03T23:43:59.491Z,4.30
2022-10-03T23:46:28.468Z,4.00
2022-10-03T23:49:06.099Z,4.10
2022-10-03T23:51:34.964Z,4.80
2022-10-03T23:54:07.082Z,5.03
2022-10-03T23:56:45.470Z,4.50
2022-10-03T23:59:15.234Z,5.10
